sensor_id;sensor_type;location;lat;lon;timestamp;pressure;altitude;pressure_sealevel;temperature;humidity
74437;BME280;62868;52.360;30.424;2023-07-22T00:00:07;1024.3;;;16.2;56.5
74437;BME280;62868;52.360;30.424;2023-07-22T00:05:17;1024.3;;;16;56.9
74437;BME280;62868;52.360;30.424;2023-07-22T00:10:31;1024.2;;;15.9;57.2
74437;BME280;62868;52.360;30.424;2023-07-22T00:15:31;1024.3;;;15.8;57.3
74437;BME280;62868;52.360;30.424;2023-07-22T00:20:49;1024.2;;;15.6;57.6
74437;BME280;62868;52.360;30.424;2023-07-22T00:25:27;1024.1;;;15.5;57.8
74437;BME280;62868;52.360;30.424;2023-07-22T00:30:49;1024.1;;;15.4;57.8
74437;BME280;62868;52.360;30.424;2023-07-22T00:35:07;1024.1;;;15.4;57.9
74437;BME280;62868;52.360;30.424;2023-07-22T00:40:07;1024.2;;;15.3;58.1
74437;BME280;62868;52.360;30.424;2023-07-22T00:45:29;1024.1;;;15.2;58.2
74437;BME280;62868;52.360;30.424;2023-07-22T00:50:09;1024.1;;;15.1;58.4
74437;BME280;62868;52.360;30.424;2023-07-22T00:55:49;1024;;;15;58.7
74437;BME280;62868;52.360;30.424;2023-07-22T01:00:27;1023.9;;;15;58.8
74437;BME280;62868;52.360;30.424;2023-07-22T01:05:27;1023.9;;;14.9;59
74437;BME280;62868;52.360;30.424;2023-07-22T01:10:31;1023.9;;;14.8;59
74437;BME280;62868;52.360;30.424;2023-07-22T01:15:07;1023.9;;;14.8;59.1
74437;BME280;62868;52.360;30.424;2023-07-22T01:20:23;1023.9;;;14.7;59.3
74437;BME280;62868;52.360;30.424;2023-07-22T01:25:27;1023.9;;;14.7;59.4
74437;BME280;62868;52.360;30.424;2023-07-22T01:30:49;1024;;;14.6;59.6
74437;BME280;62868;52.360;30.424;2023-07-22T01:35:07;1024;;;14.6;59.7
74437;BME280;62868;52.360;30.424;2023-07-22T01:40:11;1024;;;14.5;59.8
74437;BME280;62868;52.360;30.424;2023-07-22T01:45:49;1024;;;14.5;60
74437;BME280;62868;52.360;30.424;2023-07-22T01:50:35;1024;;;14.5;60
74437;BME280;62868;52.360;30.424;2023-07-22T01:55:07;1024;;;14.5;60
74437;BME280;62868;52.360;30.424;2023-07-22T02:00:25;1024.1;;;14.5;60
74437;BME280;62868;52.360;30.424;2023-07-22T02:05:41;1024.2;;;14.5;60.1
74437;BME280;62868;52.360;30.424;2023-07-22T02:10:13;1024.2;;;14.5;60.1
74437;BME280;62868;52.360;30.424;2023-07-22T02:15:21;1024.2;;;14.5;60.2
74437;BME280;62868;52.360;30.424;2023-07-22T02:20:49;1024.2;;;14.6;60.1
74437;BME280;62868;52.360;30.424;2023-07-22T02:25:41;1024.1;;;14.7;60.1
74437;BME280;62868;52.360;30.424;2023-07-22T02:30:23;1024.1;;;14.8;60
74437;BME280;62868;52.360;30.424;2023-07-22T02:35:27;1024.1;;;14.9;60
74437;BME280;62868;52.360;30.424;2023-07-22T02:40:41;1024;;;15.1;59.8
74437;BME280;62868;52.360;30.424;2023-07-22T02:45:11;1024.1;;;15.3;59.5
74437;BME280;62868;52.360;30.424;2023-07-22T02:50:17;1024;;;15.5;59.4
74437;BME280;62868;52.360;30.424;2023-07-22T02:55:35;1024;;;16.3;58.4
74437;BME280;62868;52.360;30.424;2023-07-22T03:00:41;1023.8;;;19.7;53.6
74437;BME280;62868;52.360;30.424;2023-07-22T03:05:49;1023.7;;;23.2;49.1
74437;BME280;62868;52.360;30.424;2023-07-22T03:10:23;1023.6;;;25.6;46.7
74437;BME280;62868;52.360;30.424;2023-07-22T03:15:07;1023.5;;;28.3;43.8
74437;BME280;62868;52.360;30.424;2023-07-22T03:20:19;1023.4;;;30.3;42.2
74437;BME280;62868;52.360;30.424;2023-07-22T03:25:49;1023.5;;;31.1;41.2
74437;BME280;62868;52.360;30.424;2023-07-22T03:30:35;1023.6;;;32.4;39.6
74437;BME280;62868;52.360;30.424;2023-07-22T03:35:41;1023.6;;;34;37.6
74437;BME280;62868;52.360;30.424;2023-07-22T03:40:41;1023.6;;;35.3;35.8
74437;BME280;62868;52.360;30.424;2023-07-22T03:45:35;1023.6;;;36;34.9
74437;BME280;62868;52.360;30.424;2023-07-22T03:50:23;1023.6;;;35.4;35.1
74437;BME280;62868;52.360;30.424;2023-07-22T03:55:11;1023.7;;;33.4;36.4
74437;BME280;62868;52.360;30.424;2023-07-22T04:00:49;1023.7;;;33;35.6
74437;BME280;62868;52.360;30.424;2023-07-22T04:05:56;1023.7;;;32.7;35
74437;BME280;62868;52.360;30.424;2023-07-22T04:10:51;1023.8;;;30.5;36.9
74437;BME280;62868;52.360;30.424;2023-07-22T04:15:49;1023.8;;;28.6;38.4
74437;BME280;62868;52.360;30.424;2023-07-22T04:20:35;1023.9;;;26.8;39.9
74437;BME280;62868;52.360;30.424;2023-07-22T04:25:07;1023.9;;;25.4;41.1
74437;BME280;62868;52.360;30.424;2023-07-22T04:30:37;1024;;;24.5;41.7
74437;BME280;62868;52.360;30.424;2023-07-22T04:35:49;1023.9;;;23.6;42.5
74437;BME280;62868;52.360;30.424;2023-07-22T04:40:10;1023.9;;;23.1;43.1
74437;BME280;62868;52.360;30.424;2023-07-22T04:45:07;1023.9;;;22.7;43.6
74437;BME280;62868;52.360;30.424;2023-07-22T04:50:49;1023.9;;;22.3;44.1
74437;BME280;62868;52.360;30.424;2023-07-22T04:55:07;1023.8;;;22.3;44
74437;BME280;62868;52.360;30.424;2023-07-22T05:00:11;1023.6;;;22.6;43.8
74437;BME280;62868;52.360;30.424;2023-07-22T05:05:17;1023.6;;;22.8;43.9
74437;BME280;62868;52.360;30.424;2023-07-22T05:10:31;1023.6;;;22.9;44.1
74437;BME280;62868;52.360;30.424;2023-07-22T05:15:19;1023.6;;;23.1;44.2
74437;BME280;62868;52.360;30.424;2023-07-22T05:20:35;1023.7;;;23.1;44.3
74437;BME280;62868;52.360;30.424;2023-07-22T05:25:11;1023.8;;;22.9;44.7
74437;BME280;62868;52.360;30.424;2023-07-22T05:30:07;1023.8;;;23.1;44.7
74437;BME280;62868;52.360;30.424;2023-07-22T05:35:17;1023.8;;;23.2;44.6
74437;BME280;62868;52.360;30.424;2023-07-22T05:40:11;1023.7;;;23;44.9
74437;BME280;62868;52.360;30.424;2023-07-22T05:45:23;1023.7;;;22.8;45
74437;BME280;62868;52.360;30.424;2023-07-22T05:50:27;1023.7;;;23;45
74437;BME280;62868;52.360;30.424;2023-07-22T05:55:49;1023.7;;;23.5;44.5
74437;BME280;62868;52.360;30.424;2023-07-22T06:00:27;1023.5;;;23.8;44.2
74437;BME280;62868;52.360;30.424;2023-07-22T06:05:07;1023.5;;;24.1;44.1
74437;BME280;62868;52.360;30.424;2023-07-22T06:10:31;1023.5;;;24.3;44
74437;BME280;62868;52.360;30.424;2023-07-22T06:15:07;1023.5;;;24.5;43.9
74437;BME280;62868;52.360;30.424;2023-07-22T06:20:23;1023.5;;;24.6;43.8
74437;BME280;62868;52.360;30.424;2023-07-22T06:25:49;1023.5;;;24.6;43.8
74437;BME280;62868;52.360;30.424;2023-07-22T06:30:49;1023.4;;;24.6;43.8
74437;BME280;62868;52.360;30.424;2023-07-22T06:35:17;1023.3;;;24.7;43.6
74437;BME280;62868;52.360;30.424;2023-07-22T06:40:11;1023.3;;;24.7;43.6
74437;BME280;62868;52.360;30.424;2023-07-22T06:45:49;1023.4;;;24.8;43.5
74437;BME280;62868;52.360;30.424;2023-07-22T06:50:17;1023.5;;;25.1;43.2
74437;BME280;62868;52.360;30.424;2023-07-22T06:55:07;1023.5;;;25.4;42.9
74437;BME280;62868;52.360;30.424;2023-07-22T07:00:27;1023.5;;;25.5;42.9
74437;BME280;62868;52.360;30.424;2023-07-22T07:05:52;1023.6;;;25.6;42.9
74437;BME280;62868;52.360;30.424;2023-07-22T07:10:19;1023.7;;;25.5;42.9
74437;BME280;62868;52.360;30.424;2023-07-22T07:15:37;1023.6;;;25.4;42.9
74437;BME280;62868;52.360;30.424;2023-07-22T07:20:37;1023.6;;;25.1;43
74437;BME280;62868;52.360;30.424;2023-07-22T07:25:09;1023.6;;;24.8;43.1
74437;BME280;62868;52.360;30.424;2023-07-22T07:30:51;1023.6;;;24.5;43.2
74437;BME280;62868;52.360;30.424;2023-07-22T07:35:07;1023.6;;;24.2;43.5
74437;BME280;62868;52.360;30.424;2023-07-22T07:40:07;1023.5;;;24;43.8
74437;BME280;62868;52.360;30.424;2023-07-22T07:45:25;1023.5;;;23.7;44.1
74437;BME280;62868;52.360;30.424;2023-07-22T07:50:51;1023.5;;;23.3;44.3
74437;BME280;62868;52.360;30.424;2023-07-22T07:55:25;1023.5;;;22.8;44.6
74437;BME280;62868;52.360;30.424;2023-07-22T08:00:43;1023.5;;;22.7;44.8
74437;BME280;62868;52.360;30.424;2023-07-22T08:05:51;1023.6;;;22.5;45
74437;BME280;62868;52.360;30.424;2023-07-22T08:10:37;1023.6;;;22.5;45.5
74437;BME280;62868;52.360;30.424;2023-07-22T08:15:23;1023.6;;;22.4;46.1
74437;BME280;62868;52.360;30.424;2023-07-22T08:20:19;1023.6;;;22.3;46.6
74437;BME280;62868;52.360;30.424;2023-07-22T08:25:51;1023.7;;;22.5;46.9
74437;BME280;62868;52.360;30.424;2023-07-22T08:30:53;1023.8;;;22.5;47.1
74437;BME280;62868;52.360;30.424;2023-07-22T08:35:51;1023.7;;;22.5;47.3
74437;BME280;62868;52.360;30.424;2023-07-22T08:40:51;1023.7;;;22.4;47.6
74437;BME280;62868;52.360;30.424;2023-07-22T08:45:52;1023.7;;;22.3;47.9
74437;BME280;62868;52.360;30.424;2023-07-22T08:50:07;1023.7;;;22.1;48.1
74437;BME280;62868;52.360;30.424;2023-07-22T08:55:37;1023.8;;;21.8;48.5
74437;BME280;62868;52.360;30.424;2023-07-22T09:00:51;1023.9;;;21.6;49
74437;BME280;62868;52.360;30.424;2023-07-22T09:05:34;1023.9;;;21.5;49.4
74437;BME280;62868;52.360;30.424;2023-07-22T09:10:25;1024;;;21.4;49.7
74437;BME280;62868;52.360;30.424;2023-07-22T09:15:51;1024;;;21.3;50.1
74437;BME280;62868;52.360;30.424;2023-07-22T09:20:25;1024;;;21.3;50.4
74437;BME280;62868;52.360;30.424;2023-07-22T09:25:20;1023.9;;;21.3;50.6
74437;BME280;62868;52.360;30.424;2023-07-22T09:30:20;1023.7;;;21.2;50.9
74437;BME280;62868;52.360;30.424;2023-07-22T09:35:43;1023.6;;;21.4;50.9
74437;BME280;62868;52.360;30.424;2023-07-22T09:40:33;1023.6;;;21.7;50.9
74437;BME280;62868;52.360;30.424;2023-07-22T09:45:37;1023.6;;;22.2;50.6
74437;BME280;62868;52.360;30.424;2023-07-22T09:50:29;1023.7;;;22.6;50.3
74437;BME280;62868;52.360;30.424;2023-07-22T09:55:16;1023.8;;;22.7;50.4
74437;BME280;62868;52.360;30.424;2023-07-22T10:00:14;1023.9;;;22.7;50.5
74437;BME280;62868;52.360;30.424;2023-07-22T10:05:14;1024;;;22.8;50.6
74437;BME280;62868;52.360;30.424;2023-07-22T10:10:20;1024;;;22.7;50.8
74437;BME280;62868;52.360;30.424;2023-07-22T10:15:33;1024.1;;;22.5;51
74437;BME280;62868;52.360;30.424;2023-07-22T10:20:51;1024.1;;;22.3;51.2
74437;BME280;62868;52.360;30.424;2023-07-22T10:25:07;1024;;;22.2;51.3
74437;BME280;62868;52.360;30.424;2023-07-22T10:30:14;1024;;;22.2;51.4
74437;BME280;62868;52.360;30.424;2023-07-22T10:35:39;1024;;;22.3;51.3
74437;BME280;62868;52.360;30.424;2023-07-22T10:40:23;1024;;;22.4;51.1
74437;BME280;62868;52.360;30.424;2023-07-22T10:45:26;1024;;;22.7;50.8
74437;BME280;62868;52.360;30.424;2023-07-22T10:50:44;1023.9;;;22.9;50.6
74437;BME280;62868;52.360;30.424;2023-07-22T10:56:02;1023.9;;;23.3;50.3
74437;BME280;62868;52.360;30.424;2023-07-22T11:00:20;1024;;;23.4;50.2
74437;BME280;62868;52.360;30.424;2023-07-22T11:05:14;1024;;;23.7;49.9
74437;BME280;62868;52.360;30.424;2023-07-22T11:10:52;1023.9;;;23.9;49.7
74437;BME280;62868;52.360;30.424;2023-07-22T11:15:27;1024;;;24.2;49.3
74437;BME280;62868;52.360;30.424;2023-07-22T11:20:25;1024;;;24.6;48.8
74437;BME280;62868;52.360;30.424;2023-07-22T11:25:07;1023.9;;;24.9;48.5
74437;BME280;62868;52.360;30.424;2023-07-22T11:30:45;1023.9;;;24.9;48.5
74437;BME280;62868;52.360;30.424;2023-07-22T11:35:08;1023.9;;;25;48.3
74437;BME280;62868;52.360;30.424;2023-07-22T11:40:11;1024;;;24.9;48.3
74437;BME280;62868;52.360;30.424;2023-07-22T11:45:37;1024;;;24.6;48.7
74437;BME280;62868;52.360;30.424;2023-07-22T11:50:45;1024;;;24.5;48.8
74437;BME280;62868;52.360;30.424;2023-07-22T11:55:54;1023.9;;;24.5;48.7
74437;BME280;62868;52.360;30.424;2023-07-22T12:00:45;1023.9;;;24.5;48.8
74437;BME280;62868;52.360;30.424;2023-07-22T12:05:23;1024;;;24.2;49.2
74437;BME280;62868;52.360;30.424;2023-07-22T12:10:07;1024;;;23.7;49.8
74437;BME280;62868;52.360;30.424;2023-07-22T12:16:01;1023.9;;;23.3;50.2
74437;BME280;62868;52.360;30.424;2023-07-22T12:20:16;1024;;;23.1;50.5
74437;BME280;62868;52.360;30.424;2023-07-22T12:25:45;1024;;;22.9;50.9
74437;BME280;62868;52.360;30.424;2023-07-22T12:30:53;1024;;;22.8;51.1
74437;BME280;62868;52.360;30.424;2023-07-22T12:35:21;1023.9;;;22.7;51.4
74437;BME280;62868;52.360;30.424;2023-07-22T12:40:07;1023.9;;;22.7;51.7
74437;BME280;62868;52.360;30.424;2023-07-22T12:45:07;1023.9;;;22.6;51.8
74437;BME280;62868;52.360;30.424;2023-07-22T12:50:53;1023.9;;;22.5;52
74437;BME280;62868;52.360;30.424;2023-07-22T12:55:53;1023.9;;;22.4;52.2
74437;BME280;62868;52.360;30.424;2023-07-22T13:00:53;1023.8;;;22.2;52.4
74437;BME280;62868;52.360;30.424;2023-07-22T13:05:45;1023.8;;;22.2;52.7
74437;BME280;62868;52.360;30.424;2023-07-22T13:10:31;1023.8;;;22.2;52.8
74437;BME280;62868;52.360;30.424;2023-07-22T13:15:07;1023.8;;;22.3;52.8
74437;BME280;62868;52.360;30.424;2023-07-22T13:20:15;1023.7;;;22.4;52.8
74437;BME280;62868;52.360;30.424;2023-07-22T13:25:09;1023.6;;;22.6;52.7
74437;BME280;62868;52.360;30.424;2023-07-22T13:30:35;1023.6;;;23;52.3
74437;BME280;62868;52.360;30.424;2023-07-22T13:35:13;1023.6;;;23.2;52.2
74437;BME280;62868;52.360;30.424;2023-07-22T13:40:53;1023.5;;;23.4;52.1
74437;BME280;62868;52.360;30.424;2023-07-22T13:45:07;1023.5;;;23.6;51.9
74437;BME280;62868;52.360;30.424;2023-07-22T13:50:35;1023.5;;;23.5;52
74437;BME280;62868;52.360;30.424;2023-07-22T13:55:07;1023.4;;;23.3;52.2
74437;BME280;62868;52.360;30.424;2023-07-22T14:00:35;1023.3;;;23.1;52.4
74437;BME280;62868;52.360;30.424;2023-07-22T14:05:35;1023.3;;;23;52.5
74437;BME280;62868;52.360;30.424;2023-07-22T14:10:53;1023.3;;;22.8;52.8
74437;BME280;62868;52.360;30.424;2023-07-22T14:15:13;1023.3;;;22.8;52.8
74437;BME280;62868;52.360;30.424;2023-07-22T14:20:25;1023.3;;;22.5;53.1
74437;BME280;62868;52.360;30.424;2023-07-22T14:25:07;1023.3;;;22.4;53.3
74437;BME280;62868;52.360;30.424;2023-07-22T14:30:08;1023.3;;;22.2;53.7
74437;BME280;62868;52.360;30.424;2023-07-22T14:35:27;1023.3;;;22.1;53.9
74437;BME280;62868;52.360;30.424;2023-07-22T14:40:35;1023.3;;;22;54.1
74437;BME280;62868;52.360;30.424;2023-07-22T14:45:53;1023.4;;;21.8;54.5
74437;BME280;62868;52.360;30.424;2023-07-22T14:50:24;1023.3;;;21.6;54.9
74437;BME280;62868;52.360;30.424;2023-07-22T14:55:13;1023.2;;;21.6;55.1
74437;BME280;62868;52.360;30.424;2023-07-22T15:00:53;1023.2;;;21.5;55.4
74437;BME280;62868;52.360;30.424;2023-07-22T15:05:07;1023.2;;;21.3;55.6
74437;BME280;62868;52.360;30.424;2023-07-22T15:10:27;1023.3;;;21.2;55.8
74437;BME280;62868;52.360;30.424;2023-07-22T15:15:53;1023.3;;;21.3;55.9
74437;BME280;62868;52.360;30.424;2023-07-22T15:20:53;1023.2;;;21.2;56.1
74437;BME280;62868;52.360;30.424;2023-07-22T15:25:19;1023.2;;;21.2;56.3
74437;BME280;62868;52.360;30.424;2023-07-22T15:30:08;1023.1;;;21.2;56.4
74437;BME280;62868;52.360;30.424;2023-07-22T15:35:53;1023.1;;;21.2;56.6
74437;BME280;62868;52.360;30.424;2023-07-22T15:40:19;1023.1;;;21.1;56.8
74437;BME280;62868;52.360;30.424;2023-07-22T15:45:27;1023.1;;;21;57
74437;BME280;62868;52.360;30.424;2023-07-22T15:50:08;1023.1;;;20.9;57.2
74437;BME280;62868;52.360;30.424;2023-07-22T15:55:45;1023;;;20.9;57.4
74437;BME280;62868;52.360;30.424;2023-07-22T16:00:27;1022.9;;;20.9;57.6
74437;BME280;62868;52.360;30.424;2023-07-22T16:05:53;1023;;;20.8;57.9
74437;BME280;62868;52.360;30.424;2023-07-22T16:10:53;1023;;;20.8;57.9
74437;BME280;62868;52.360;30.424;2023-07-22T16:15:53;1022.9;;;20.8;57.9
74437;BME280;62868;52.360;30.424;2023-07-22T16:20:21;1022.9;;;20.8;58
74437;BME280;62868;52.360;30.424;2023-07-22T16:25:29;1022.8;;;20.8;58.1
74437;BME280;62868;52.360;30.424;2023-07-22T16:30:53;1022.8;;;20.8;58.3
74437;BME280;62868;52.360;30.424;2023-07-22T16:35:07;1022.8;;;20.7;58.5
74437;BME280;62868;52.360;30.424;2023-07-22T16:40:15;1022.8;;;20.7;58.6
74437;BME280;62868;52.360;30.424;2023-07-22T16:45:39;1022.9;;;20.7;58.8
74437;BME280;62868;52.360;30.424;2023-07-22T16:50:45;1022.9;;;20.7;58.9
74437;BME280;62868;52.360;30.424;2023-07-22T16:55:55;1022.8;;;20.7;59.1
74437;BME280;62868;52.360;30.424;2023-07-22T17:00:30;1022.8;;;20.6;59.3
74437;BME280;62868;52.360;30.424;2023-07-22T17:05:45;1022.7;;;20.4;59.5
74437;BME280;62868;52.360;30.424;2023-07-22T17:10:08;1022.7;;;20.4;59.6
74437;BME280;62868;52.360;30.424;2023-07-22T17:15:55;1022.7;;;20.3;59.9
74437;BME280;62868;52.360;30.424;2023-07-22T17:20:39;1022.7;;;20.3;59.8
74437;BME280;62868;52.360;30.424;2023-07-22T17:25:55;1022.8;;;20.3;60.1
74437;BME280;62868;52.360;30.424;2023-07-22T17:30:57;1022.7;;;20.1;60.4
74437;BME280;62868;52.360;30.424;2023-07-22T17:35:39;1022.7;;;19.9;60.9
74437;BME280;62868;52.360;30.424;2023-07-22T17:40:13;1022.8;;;19.8;61.2
74437;BME280;62868;52.360;30.424;2023-07-22T17:45:21;1022.7;;;19.6;61.5
74437;BME280;62868;52.360;30.424;2023-07-22T17:50:55;1022.6;;;19.4;61.8
74437;BME280;62868;52.360;30.424;2023-07-22T17:55:55;1022.6;;;19.3;62
74437;BME280;62868;52.360;30.424;2023-07-22T18:00:55;1022.7;;;19.2;62.2
74437;BME280;62868;52.360;30.424;2023-07-22T18:05:55;1022.7;;;19.1;62.3
74437;BME280;62868;52.360;30.424;2023-07-22T18:10:40;1022.8;;;19;62.6
74437;BME280;62868;52.360;30.424;2023-07-22T18:15:13;1022.9;;;19;62.7
74437;BME280;62868;52.360;30.424;2023-07-22T18:20:33;1023;;;19;62.7
74437;BME280;62868;52.360;30.424;2023-07-22T18:25:55;1023;;;19;62.9
74437;BME280;62868;52.360;30.424;2023-07-22T18:30:39;1023;;;18.9;63
74437;BME280;62868;52.360;30.424;2023-07-22T18:35:21;1022.9;;;18.9;63.1
74437;BME280;62868;52.360;30.424;2023-07-22T18:40:55;1022.9;;;18.9;63.1
74437;BME280;62868;52.360;30.424;2023-07-22T18:45:13;1022.8;;;18.8;63.3
74437;BME280;62868;52.360;30.424;2023-07-22T18:50:37;1022.8;;;18.7;63.6
74437;BME280;62868;52.360;30.424;2023-07-22T18:55:22;1022.8;;;18.6;63.7
74437;BME280;62868;52.360;30.424;2023-07-22T19:00:10;1022.9;;;18.6;63.9
74437;BME280;62868;52.360;30.424;2023-07-22T19:05:37;1022.9;;;18.6;63.9
74437;BME280;62868;52.360;30.424;2023-07-22T19:10:33;1022.8;;;18.5;64.1
74437;BME280;62868;52.360;30.424;2023-07-22T19:15:08;1022.8;;;18.5;64.3
74437;BME280;62868;52.360;30.424;2023-07-22T19:20:25;1022.8;;;18.4;64.4
74437;BME280;62868;52.360;30.424;2023-07-22T19:25:08;1022.7;;;18.4;64.4
74437;BME280;62868;52.360;30.424;2023-07-22T19:30:21;1022.7;;;18.3;64.6
74437;BME280;62868;52.360;30.424;2023-07-22T19:35:25;1022.7;;;18.2;64.8
74437;BME280;62868;52.360;30.424;2023-07-22T19:40:35;1022.6;;;18.2;64.9
74437;BME280;62868;52.360;30.424;2023-07-22T19:45:58;1022.6;;;18.1;65.1
74437;BME280;62868;52.360;30.424;2023-07-22T19:50:08;1022.6;;;18.1;65.2
74437;BME280;62868;52.360;30.424;2023-07-22T19:55:29;1022.7;;;18.1;65.2
74437;BME280;62868;52.360;30.424;2023-07-22T20:00:35;1022.6;;;18.1;65.4
74437;BME280;62868;52.360;30.424;2023-07-22T20:05:39;1022.6;;;18.2;65.4
74437;BME280;62868;52.360;30.424;2023-07-22T20:10:13;1022.6;;;18.2;65.4
74437;BME280;62868;52.360;30.424;2023-07-22T20:15:43;1022.6;;;18.2;65.4
74437;BME280;62868;52.360;30.424;2023-07-22T20:20:53;1022.6;;;18.3;65.4
74437;BME280;62868;52.360;30.424;2023-07-22T20:25:15;1022.6;;;18.3;65.4
74437;BME280;62868;52.360;30.424;2023-07-22T20:30:46;1022.6;;;18.2;65.6
74437;BME280;62868;52.360;30.424;2023-07-22T20:35:54;1022.6;;;18.1;65.6
74437;BME280;62868;52.360;30.424;2023-07-22T20:40:08;1022.6;;;18;65.8
74437;BME280;62868;52.360;30.424;2023-07-22T20:45:25;1022.6;;;17.9;65.9
74437;BME280;62868;52.360;30.424;2023-07-22T20:50:29;1022.6;;;17.8;65.9
74437;BME280;62868;52.360;30.424;2023-07-22T20:55:53;1022.6;;;17.8;65.9
74437;BME280;62868;52.360;30.424;2023-07-22T21:00:22;1022.6;;;17.7;65.9
74437;BME280;62868;52.360;30.424;2023-07-22T21:05:08;1022.7;;;17.7;66
74437;BME280;62868;52.360;30.424;2023-07-22T21:10:53;1022.7;;;17.7;65.9
74437;BME280;62868;52.360;30.424;2023-07-22T21:15:43;1022.8;;;17.7;65.9
74437;BME280;62868;52.360;30.424;2023-07-22T21:20:53;1022.8;;;17.7;65.8
74437;BME280;62868;52.360;30.424;2023-07-22T21:25:30;1022.8;;;17.7;65.7
74437;BME280;62868;52.360;30.424;2023-07-22T21:30:29;1022.8;;;17.8;65.7
74437;BME280;62868;52.360;30.424;2023-07-22T21:35:14;1022.8;;;17.9;65.7
74437;BME280;62868;52.360;30.424;2023-07-22T21:40:54;1022.7;;;17.9;65.6
74437;BME280;62868;52.360;30.424;2023-07-22T21:45:39;1022.7;;;18;65.6
74437;BME280;62868;52.360;30.424;2023-07-22T21:50:43;1022.7;;;18.1;65.8
74437;BME280;62868;52.360;30.424;2023-07-22T21:55:53;1022.7;;;18.1;65.8
74437;BME280;62868;52.360;30.424;2023-07-22T22:00:39;1022.8;;;18.1;66
74437;BME280;62868;52.360;30.424;2023-07-22T22:05:29;1022.8;;;17.9;66.3
74437;BME280;62868;52.360;30.424;2023-07-22T22:10:26;1022.8;;;17.9;66.4
74437;BME280;62868;52.360;30.424;2023-07-22T22:15:53;1022.7;;;17.8;66.5
74437;BME280;62868;52.360;30.424;2023-07-22T22:20:53;1022.8;;;17.8;66.6
74437;BME280;62868;52.360;30.424;2023-07-22T22:25:54;1022.9;;;17.7;66.6
74437;BME280;62868;52.360;30.424;2023-07-22T22:30:57;1022.9;;;17.7;66.5
74437;BME280;62868;52.360;30.424;2023-07-22T22:35:54;1023;;;17.6;66.7
74437;BME280;62868;52.360;30.424;2023-07-22T22:40:08;1023;;;17.6;66.7
74437;BME280;62868;52.360;30.424;2023-07-22T22:45:31;1022.9;;;17.6;66.6
74437;BME280;62868;52.360;30.424;2023-07-22T22:50:53;1022.9;;;17.6;66.7
74437;BME280;62868;52.360;30.424;2023-07-22T22:55:36;1022.9;;;17.5;66.7
74437;BME280;62868;52.360;30.424;2023-07-22T23:00:08;1022.9;;;17.4;66.7
74437;BME280;62868;52.360;30.424;2023-07-22T23:05:54;1022.8;;;17.5;66.7
74437;BME280;62868;52.360;30.424;2023-07-22T23:10:14;1022.8;;;17.5;66.6
74437;BME280;62868;52.360;30.424;2023-07-22T23:15:28;1022.8;;;17.6;66.5
74437;BME280;62868;52.360;30.424;2023-07-22T23:20:14;1022.8;;;17.6;66.6
74437;BME280;62868;52.360;30.424;2023-07-22T23:25:53;1022.9;;;17.5;66.8
74437;BME280;62868;52.360;30.424;2023-07-22T23:30:33;1022.9;;;17.4;66.8
74437;BME280;62868;52.360;30.424;2023-07-22T23:35:39;1022.9;;;17.4;66.8
74437;BME280;62868;52.360;30.424;2023-07-22T23:40:30;1022.9;;;17.4;66.9
74437;BME280;62868;52.360;30.424;2023-07-22T23:45:14;1022.8;;;17.4;66.9
74437;BME280;62868;52.360;30.424;2023-07-22T23:50:08;1022.8;;;17.4;67
74437;BME280;62868;52.360;30.424;2023-07-22T23:55:08;1022.9;;;17.4;67
